createdAt,value
2019-05-21T00:00:01.800Z,13.30
2019-05-21T00:02:30.449Z,13.40
2019-05-21T00:04:59.177Z,13.50
2019-05-21T00:07:27.897Z,13.40
2019-05-21T00:09:56.648Z,13.40
2019-05-21T00:12:25.262Z,13.60
2019-05-21T00:14:53.973Z,13.50
2019-05-21T00:17:22.534Z,13.40
2019-05-21T00:19:51.241Z,13.50
2019-05-21T00:22:19.979Z,13.50
2019-05-21T00:24:49.053Z,13.50
2019-05-21T00:27:17.711Z,13.40
2019-05-21T00:30:22.456Z,13.40
2019-05-21T00:33:26.854Z,13.40
2019-05-21T00:36:33.049Z,13.50
2019-05-21T00:39:37.449Z,13.50
2019-05-21T00:42:08.848Z,13.40
2019-05-21T00:44:40.567Z,13.40
2019-05-21T00:47:10.812Z,13.40
2019-05-21T00:49:39.625Z,13.30
2019-05-21T00:52:09.363Z,13.40
2019-05-21T00:54:38.276Z,13.30
2019-05-21T00:57:07.024Z,13.40
2019-05-21T00:59:35.749Z,13.40
2019-05-21T01:02:04.453Z,13.30
2019-05-21T01:04:33.249Z,13.40
2019-05-21T01:07:02.040Z,13.50
2019-05-21T01:09:30.907Z,13.60
2019-05-21T01:11:59.694Z,13.40
2019-05-21T01:14:28.399Z,13.40
2019-05-21T01:16:57.040Z,13.40
2019-05-21T01:19:25.861Z,13.30
2019-05-21T01:21:54.536Z,13.40
2019-05-21T01:24:23.210Z,13.40
2019-05-21T01:26:51.967Z,13.40
2019-05-21T01:29:20.575Z,13.40
2019-05-21T01:31:49.201Z,13.40
2019-05-21T01:34:17.952Z,13.30
2019-05-21T01:36:46.560Z,13.30
2019-05-21T01:39:15.334Z,13.30
2019-05-21T01:41:43.978Z,13.30
2019-05-21T01:44:12.692Z,13.30
2019-05-21T01:46:41.302Z,13.20
2019-05-21T01:49:10.099Z,13.30
2019-05-21T01:51:38.717Z,13.30
2019-05-21T01:54:07.270Z,13.20
2019-05-21T01:56:35.845Z,13.10
2019-05-21T01:59:06.031Z,13.10
2019-05-21T02:01:34.580Z,13.00
2019-05-21T02:04:03.267Z,13.00
2019-05-21T02:06:31.970Z,13.00
2019-05-21T02:09:00.563Z,13.00
2019-05-21T02:11:29.367Z,13.00
2019-05-21T02:13:58.163Z,13.00
2019-05-21T02:16:26.832Z,13.00
2019-05-21T02:18:55.505Z,13.00
2019-05-21T02:21:24.217Z,13.10
2019-05-21T02:23:52.852Z,13.20
2019-05-21T02:26:21.500Z,13.20
2019-05-21T02:28:50.104Z,13.20
2019-05-21T02:31:18.735Z,13.20
2019-05-21T02:33:47.522Z,13.20
2019-05-21T02:36:16.222Z,13.20
2019-05-21T02:38:44.952Z,13.20
2019-05-21T02:41:13.758Z,13.30
2019-05-21T02:43:42.506Z,13.20
2019-05-21T02:46:11.197Z,13.20
2019-05-21T02:48:39.961Z,13.20
2019-05-21T02:51:08.681Z,13.20
2019-05-21T02:53:37.367Z,13.20
2019-05-21T02:56:06.025Z,13.20
2019-05-21T02:58:34.706Z,13.20
2019-05-21T03:01:11.243Z,13.10
2019-05-21T03:03:40.152Z,13.10
2019-05-21T03:06:14.273Z,13.20
2019-05-21T03:08:39.185Z,13.10
2019-05-21T03:11:07.887Z,13.00
2019-05-21T03:13:36.503Z,13.00
2019-05-21T03:16:05.375Z,13.00
2019-05-21T03:18:34.089Z,13.10
2019-05-21T03:21:02.776Z,13.10
2019-05-21T03:23:31.641Z,13.10
2019-05-21T03:26:00.704Z,13.10
2019-05-21T03:28:29.418Z,13.10
2019-05-21T03:30:58.634Z,13.10
2019-05-21T03:33:27.705Z,13.20
2019-05-21T03:35:56.787Z,13.20
2019-05-21T03:38:25.995Z,13.20
2019-05-21T03:40:55.066Z,13.20
2019-05-21T03:43:24.126Z,13.20
2019-05-21T03:45:54.213Z,13.20
2019-05-21T03:48:23.327Z,13.20
2019-05-21T03:50:52.637Z,13.20
2019-05-21T03:53:21.873Z,13.20
2019-05-21T03:55:50.998Z,13.20
2019-05-21T03:58:20.042Z,13.20
2019-05-21T04:00:49.301Z,13.30
2019-05-21T04:03:18.450Z,13.30
2019-05-21T04:05:47.880Z,13.40
2019-05-21T04:08:17.125Z,13.30
2019-05-21T04:10:46.332Z,13.30
2019-05-21T04:13:15.499Z,13.30
2019-05-21T04:15:55.018Z,13.30
2019-05-21T04:18:25.608Z,13.20
2019-05-21T04:20:54.864Z,13.20
2019-05-21T04:23:25.479Z,13.20
2019-05-21T04:25:54.489Z,13.20
2019-05-21T04:28:23.651Z,13.30
2019-05-21T04:30:52.857Z,13.30
2019-05-21T04:33:21.989Z,13.30
2019-05-21T04:35:51.720Z,13.40
2019-05-21T04:38:20.916Z,13.40
2019-05-21T04:40:49.996Z,13.40
2019-05-21T04:43:19.269Z,13.50
2019-05-21T04:45:48.554Z,13.60
2019-05-21T04:48:17.736Z,13.60
2019-05-21T04:50:46.951Z,13.70
2019-05-21T04:53:16.022Z,13.50
2019-05-21T04:55:45.289Z,13.60
2019-05-21T04:58:14.569Z,13.60
2019-05-21T05:00:43.852Z,13.60
2019-05-21T05:03:13.078Z,13.50
2019-05-21T05:05:42.262Z,13.50
2019-05-21T05:08:11.350Z,13.40
2019-05-21T05:10:40.617Z,13.40
2019-05-21T05:13:09.728Z,13.40
2019-05-21T05:15:39.102Z,13.40
2019-05-21T05:18:08.270Z,13.50
2019-05-21T05:20:37.564Z,13.50
2019-05-21T05:23:06.888Z,13.60
2019-05-21T05:25:35.734Z,13.60
2019-05-21T05:28:05.001Z,13.60
2019-05-21T05:30:34.147Z,13.50
2019-05-21T05:33:03.256Z,13.50
2019-05-21T05:35:32.389Z,13.50
2019-05-21T05:38:01.494Z,13.70
2019-05-21T05:40:30.918Z,13.70
2019-05-21T05:43:00.100Z,13.70
2019-05-21T05:45:29.294Z,13.70
2019-05-21T05:47:58.411Z,13.80
2019-05-21T05:50:32.305Z,13.70
2019-05-21T05:53:01.474Z,13.80
2019-05-21T05:55:30.541Z,13.80
2019-05-21T05:57:59.623Z,13.80
2019-05-21T06:00:28.792Z,13.70
2019-05-21T06:02:58.188Z,13.70
2019-05-21T06:05:27.479Z,13.80
2019-05-21T06:07:59.821Z,13.80
2019-05-21T06:10:27.485Z,13.70
2019-05-21T06:12:56.815Z,13.80
2019-05-21T06:15:25.978Z,13.70
2019-05-21T06:17:55.230Z,13.70
2019-05-21T06:20:24.865Z,13.70
2019-05-21T06:22:55.378Z,13.80
2019-05-21T06:25:24.702Z,13.90
2019-05-21T06:27:53.633Z,13.90
2019-05-21T06:30:22.766Z,13.80
2019-05-21T06:32:51.965Z,13.90
2019-05-21T06:35:21.146Z,13.90
2019-05-21T06:37:50.660Z,13.90
2019-05-21T06:40:19.982Z,14.00
2019-05-21T06:42:49.242Z,14.10
2019-05-21T06:45:19.126Z,14.00
2019-05-21T06:47:48.160Z,14.10
2019-05-21T06:50:17.389Z,14.10
2019-05-21T06:52:46.421Z,14.20
2019-05-21T06:55:15.571Z,14.30
2019-05-21T06:57:44.885Z,14.30
2019-05-21T07:00:15.861Z,14.20
2019-05-21T07:02:45.114Z,14.10
2019-05-21T07:05:14.475Z,14.10
2019-05-21T07:07:43.587Z,14.10
2019-05-21T07:10:13.083Z,14.00
2019-05-21T07:12:42.195Z,14.00
2019-05-21T07:15:11.713Z,14.10
2019-05-21T07:17:40.857Z,14.10
2019-05-21T07:20:10.453Z,14.10
2019-05-21T07:22:39.649Z,14.20
2019-05-21T07:25:09.071Z,14.40
2019-05-21T07:27:38.088Z,14.30
2019-05-21T07:30:09.664Z,14.60
2019-05-21T07:32:37.841Z,14.50
2019-05-21T07:35:07.152Z,14.40
2019-05-21T07:37:36.604Z,14.60
2019-05-21T07:40:08.330Z,14.50
2019-05-21T07:42:37.603Z,14.70
2019-05-21T07:45:07.620Z,14.90
2019-05-21T07:47:36.950Z,15.10
2019-05-21T07:50:07.102Z,15.00
2019-05-21T07:52:36.200Z,15.10
2019-05-21T07:55:05.720Z,15.00
2019-05-21T07:57:34.874Z,15.00
2019-05-21T08:00:05.505Z,15.10
2019-05-21T08:02:34.560Z,15.00
2019-05-21T08:05:04.079Z,14.90
2019-05-21T08:07:33.135Z,14.90
2019-05-21T08:10:02.156Z,14.90
2019-05-21T08:12:38.990Z,14.70
2019-05-21T08:15:02.149Z,14.60
2019-05-21T08:17:31.405Z,14.80
2019-05-21T08:20:09.524Z,15.30
2019-05-21T08:22:31.903Z,15.30
2019-05-21T08:25:01.367Z,15.50
2019-05-21T08:27:30.802Z,15.40
2019-05-21T08:29:59.926Z,15.60
2019-05-21T08:32:29.110Z,15.50
2019-05-21T08:34:58.250Z,15.30
2019-05-21T08:37:27.438Z,15.30
2019-05-21T08:39:56.821Z,15.40
2019-05-21T08:42:25.999Z,15.40
2019-05-21T08:44:55.372Z,15.30
2019-05-21T08:47:24.585Z,15.40
2019-05-21T08:49:53.652Z,15.60
2019-05-21T08:52:23.026Z,15.90
2019-05-21T08:54:55.782Z,16.20
2019-05-21T08:57:23.106Z,16.00
2019-05-21T08:59:52.217Z,15.80
2019-05-21T09:02:21.312Z,15.70
2019-05-21T09:04:50.501Z,15.90
2019-05-21T09:07:19.484Z,15.80
2019-05-21T09:09:51.195Z,15.90
2019-05-21T09:12:19.544Z,16.10
2019-05-21T09:14:48.825Z,16.00
2019-05-21T09:17:17.896Z,15.70
2019-05-21T09:19:47.173Z,16.00
2019-05-21T09:22:16.369Z,16.50
2019-05-21T09:24:45.354Z,16.80
2019-05-21T09:27:14.525Z,16.90
2019-05-21T09:29:43.640Z,17.00
2019-05-21T09:32:12.764Z,16.80
2019-05-21T09:34:48.856Z,16.60
2019-05-21T09:37:19.533Z,16.60
2019-05-21T09:39:44.579Z,16.50
2019-05-21T09:42:13.692Z,16.50
2019-05-21T09:44:44.527Z,16.70
2019-05-21T09:47:15.080Z,16.70
2019-05-21T09:49:44.111Z,16.60
2019-05-21T09:52:13.284Z,16.80
2019-05-21T09:54:44.475Z,17.00
2019-05-21T09:57:15.252Z,17.10
2019-05-21T10:00:02.153Z,17.00
2019-05-21T10:02:33.506Z,16.70
2019-05-21T10:05:02.738Z,16.40
2019-05-21T10:07:40.134Z,16.40
2019-05-21T10:10:02.447Z,16.60
2019-05-21T10:12:31.509Z,16.80
2019-05-21T10:15:00.846Z,16.80
2019-05-21T10:17:31.435Z,16.70
2019-05-21T10:20:01.007Z,16.80
2019-05-21T10:22:30.112Z,16.60
2019-05-21T10:24:59.442Z,16.50
2019-05-21T10:27:28.653Z,16.80
2019-05-21T10:29:57.638Z,17.10
2019-05-21T10:32:28.219Z,17.10
2019-05-21T10:34:57.408Z,17.20
2019-05-21T10:37:26.795Z,17.40
2019-05-21T10:39:55.965Z,17.40
2019-05-21T10:42:25.827Z,17.60
2019-05-21T10:44:55.054Z,17.70
2019-05-21T10:47:25.355Z,17.80
2019-05-21T10:49:55.541Z,17.80
2019-05-21T10:52:24.732Z,17.70
2019-05-21T10:54:53.682Z,18.00
2019-05-21T10:57:24.127Z,17.90
2019-05-21T10:59:53.404Z,17.70
2019-05-21T11:02:24.070Z,17.80
2019-05-21T11:04:54.787Z,18.20
2019-05-21T11:07:24.175Z,18.80
2019-05-21T11:09:53.969Z,19.10
2019-05-21T11:12:23.241Z,19.10
2019-05-21T11:14:52.488Z,18.90
2019-05-21T11:17:21.924Z,19.20
2019-05-21T11:19:51.305Z,19.20
2019-05-21T11:22:20.510Z,19.50
2019-05-21T11:24:49.875Z,19.40
2019-05-21T11:27:19.098Z,19.30
2019-05-21T11:29:48.439Z,19.20
2019-05-21T11:32:17.607Z,19.30
2019-05-21T11:34:49.961Z,19.50
2019-05-21T11:37:17.743Z,19.60
2019-05-21T11:39:46.853Z,19.20
2019-05-21T11:42:16.195Z,19.20
2019-05-21T11:44:45.732Z,19.30
2019-05-21T11:47:15.024Z,19.40
2019-05-21T11:49:44.358Z,19.50
2019-05-21T11:52:13.772Z,19.10
2019-05-21T11:54:43.034Z,19.00
2019-05-21T11:57:13.822Z,18.60
2019-05-21T11:59:42.747Z,18.50
2019-05-21T12:02:13.305Z,18.40
2019-05-21T12:04:42.296Z,18.30
2019-05-21T12:07:12.109Z,18.40
2019-05-21T12:09:41.462Z,18.50
2019-05-21T12:12:10.406Z,18.70
2019-05-21T12:14:39.548Z,18.60
2019-05-21T12:17:08.506Z,18.70
2019-05-21T12:19:37.772Z,18.40
2019-05-21T12:22:06.825Z,18.40
2019-05-21T12:24:36.269Z,18.50
2019-05-21T12:27:05.487Z,18.70
2019-05-21T12:29:34.934Z,18.90
2019-05-21T12:32:05.859Z,19.10
2019-05-21T12:34:38.597Z,19.40
2019-05-21T12:37:06.223Z,19.20
2019-05-21T12:39:35.487Z,19.10
2019-05-21T12:42:04.710Z,18.80
2019-05-21T12:44:33.848Z,18.50
2019-05-21T12:47:03.011Z,18.50
2019-05-21T12:49:32.388Z,18.80
2019-05-21T12:52:02.906Z,18.80
2019-05-21T12:54:32.187Z,19.00
2019-05-21T12:57:01.381Z,19.20
2019-05-21T12:59:30.438Z,19.50
2019-05-21T13:01:59.626Z,19.70
2019-05-21T13:04:28.762Z,19.90
2019-05-21T13:06:57.869Z,20.20
2019-05-21T13:09:32.923Z,20.00
2019-05-21T13:11:57.743Z,19.80
2019-05-21T13:14:26.806Z,19.60
2019-05-21T13:16:57.226Z,19.40
2019-05-21T13:19:28.770Z,19.40
2019-05-21T13:21:58.985Z,19.30
2019-05-21T13:24:28.287Z,19.40
2019-05-21T13:26:57.307Z,19.50
2019-05-21T13:29:27.700Z,19.50
2019-05-21T13:31:56.720Z,19.30
2019-05-21T13:34:25.890Z,19.20
2019-05-21T13:36:55.263Z,18.90
2019-05-21T13:39:25.771Z,18.70
2019-05-21T13:41:55.327Z,18.60
2019-05-21T13:44:24.517Z,18.60
2019-05-21T13:46:53.590Z,18.60
2019-05-21T13:49:22.695Z,18.60
2019-05-21T13:51:52.800Z,18.50
2019-05-21T13:54:21.940Z,18.50
2019-05-21T13:56:51.270Z,18.50
2019-05-21T13:59:20.503Z,18.50
2019-05-21T14:01:49.882Z,18.60
2019-05-21T14:04:19.191Z,18.70
2019-05-21T14:06:51.159Z,18.80
2019-05-21T14:09:20.570Z,18.80
2019-05-21T14:11:50.021Z,18.80
2019-05-21T14:14:19.083Z,18.80
2019-05-21T14:16:49.151Z,18.90
2019-05-21T14:19:18.453Z,18.90
2019-05-21T14:21:47.860Z,18.90
2019-05-21T14:24:17.320Z,19.00
2019-05-21T14:26:46.529Z,19.10
2019-05-21T14:29:15.962Z,19.00
2019-05-21T14:31:46.567Z,19.00
2019-05-21T14:34:15.735Z,19.00
2019-05-21T14:36:44.949Z,19.00
2019-05-21T14:39:15.603Z,19.10
2019-05-21T14:41:45.022Z,19.20
2019-05-21T14:44:14.055Z,19.50
2019-05-21T14:46:43.356Z,19.70
2019-05-21T14:49:12.363Z,19.90
2019-05-21T14:51:41.713Z,20.10
2019-05-21T14:54:25.322Z,20.30
2019-05-21T14:56:46.369Z,20.30
2019-05-21T14:59:12.664Z,20.40
2019-05-21T15:01:41.779Z,20.40
2019-05-21T15:04:11.111Z,20.40
2019-05-21T15:06:40.187Z,20.40
2019-05-21T15:09:09.623Z,20.40
2019-05-21T15:11:40.350Z,20.30
2019-05-21T15:14:09.731Z,20.10
2019-05-21T15:16:39.095Z,20.00
2019-05-21T15:19:08.257Z,20.00
2019-05-21T15:21:39.083Z,20.00
2019-05-21T15:24:08.514Z,20.20
2019-05-21T15:26:37.716Z,20.20
2019-05-21T15:29:07.101Z,20.30
2019-05-21T15:31:36.331Z,20.30
2019-05-21T15:34:06.394Z,20.20
2019-05-21T15:36:35.527Z,20.10
2019-05-21T15:39:06.708Z,20.00
2019-05-21T15:41:37.626Z,19.90
2019-05-21T15:44:06.846Z,19.70
2019-05-21T15:46:47.870Z,19.70
2019-05-21T15:49:08.774Z,19.70
2019-05-21T15:51:39.494Z,19.70
2019-05-21T15:54:08.799Z,19.60
2019-05-21T15:56:37.873Z,19.50
2019-05-21T15:59:07.075Z,19.40
2019-05-21T16:01:39.926Z,19.30
2019-05-21T16:04:07.102Z,19.20
2019-05-21T16:06:36.349Z,19.20
2019-05-21T16:09:09.016Z,19.40
2019-05-21T16:11:38.134Z,19.60
2019-05-21T16:14:07.377Z,19.60
2019-05-21T16:16:36.384Z,19.60
2019-05-21T16:19:05.780Z,19.60
2019-05-21T16:21:34.957Z,19.60
2019-05-21T16:24:07.375Z,19.70
2019-05-21T16:26:36.499Z,19.80
2019-05-21T16:29:05.771Z,19.80
2019-05-21T16:31:36.435Z,19.80
2019-05-21T16:34:06.283Z,19.70
2019-05-21T16:36:35.590Z,19.60
2019-05-21T16:39:06.839Z,19.70
2019-05-21T16:41:44.605Z,19.70
2019-05-21T16:44:07.202Z,19.70
2019-05-21T16:46:36.354Z,19.80
2019-05-21T16:49:05.787Z,19.90
2019-05-21T16:51:38.128Z,20.10
2019-05-21T16:54:07.300Z,20.20
2019-05-21T16:56:36.397Z,20.20
2019-05-21T16:59:05.655Z,20.20
2019-05-21T17:01:34.931Z,20.10
2019-05-21T17:04:04.351Z,20.00
2019-05-21T17:06:33.539Z,19.90
2019-05-21T17:09:04.356Z,19.90
2019-05-21T17:11:33.617Z,19.90
2019-05-21T17:14:02.862Z,19.90
2019-05-21T17:16:33.315Z,19.90
2019-05-21T17:19:02.443Z,19.90
2019-05-21T17:21:31.755Z,20.00
2019-05-21T17:24:01.008Z,20.00
2019-05-21T17:26:30.132Z,20.00
2019-05-21T17:29:00.587Z,20.10
2019-05-21T17:31:29.623Z,19.90
2019-05-21T17:33:58.640Z,19.90
2019-05-21T17:36:27.946Z,19.80
2019-05-21T17:38:57.327Z,19.60
2019-05-21T17:41:27.735Z,19.60
2019-05-21T17:43:58.138Z,19.50
2019-05-21T17:46:29.102Z,19.30
2019-05-21T17:48:58.137Z,19.30
2019-05-21T17:51:27.478Z,19.20
2019-05-21T17:53:58.650Z,19.10
2019-05-21T17:56:27.739Z,19.10
2019-05-21T17:58:57.162Z,19.10
2019-05-21T18:01:26.682Z,19.00
2019-05-21T18:03:56.340Z,19.00
2019-05-21T18:06:25.625Z,18.90
2019-05-21T18:08:56.239Z,18.90
2019-05-21T18:11:25.451Z,18.80
2019-05-21T18:13:54.720Z,18.80
2019-05-21T18:16:24.103Z,18.70
2019-05-21T18:18:53.420Z,18.60
2019-05-21T18:21:23.735Z,18.60
2019-05-21T18:23:53.031Z,18.50
2019-05-21T18:26:22.746Z,18.40
2019-05-21T18:28:52.033Z,18.40
2019-05-21T18:31:21.234Z,18.40
2019-05-21T18:33:50.651Z,18.40
2019-05-21T18:36:19.834Z,18.30
2019-05-21T18:38:49.171Z,18.20
2019-05-21T18:41:18.426Z,18.10
2019-05-21T18:43:50.078Z,18.00
2019-05-21T18:46:18.531Z,18.00
2019-05-21T18:48:47.660Z,18.00
2019-05-21T18:51:16.820Z,18.00
2019-05-21T18:53:46.729Z,17.90
2019-05-21T18:56:15.944Z,17.80
2019-05-21T18:58:44.968Z,17.80
2019-05-21T19:01:14.513Z,17.70
2019-05-21T19:03:43.650Z,17.60
2019-05-21T19:06:12.948Z,17.50
2019-05-21T19:08:42.205Z,17.50
2019-05-21T19:11:11.270Z,17.50
2019-05-21T19:13:40.444Z,17.50
2019-05-21T19:16:09.476Z,17.50
2019-05-21T19:18:38.651Z,17.40
2019-05-21T19:21:07.621Z,17.40
2019-05-21T19:23:36.786Z,17.40
2019-05-21T19:26:05.889Z,17.40
2019-05-21T19:28:35.489Z,17.40
2019-05-21T19:31:05.371Z,17.30
2019-05-21T19:33:34.417Z,17.30
2019-05-21T19:36:03.604Z,17.20
2019-05-21T19:38:32.635Z,17.10
2019-05-21T19:41:01.327Z,17.00
2019-05-21T19:43:30.275Z,17.00
2019-05-21T19:46:00.800Z,16.90
2019-05-21T19:48:31.175Z,16.80
2019-05-21T19:51:00.501Z,16.70
2019-05-21T19:53:30.015Z,16.60
2019-05-21T19:55:58.796Z,16.50
2019-05-21T19:58:27.506Z,16.40
2019-05-21T20:00:56.569Z,16.30
2019-05-21T20:03:25.397Z,16.30
2019-05-21T20:05:54.378Z,16.30
2019-05-21T20:08:23.838Z,16.10
2019-05-21T20:10:52.643Z,16.00
2019-05-21T20:13:32.181Z,15.90
2019-05-21T20:15:52.021Z,15.80
2019-05-21T20:18:21.339Z,15.80
2019-05-21T20:20:50.840Z,15.80
2019-05-21T20:23:19.799Z,15.90
2019-05-21T20:25:56.568Z,15.80
2019-05-21T20:28:19.982Z,15.70
2019-05-21T20:30:50.502Z,15.60
2019-05-21T20:33:19.953Z,15.50
2019-05-21T20:35:49.704Z,15.50
2019-05-21T20:38:19.323Z,15.50
2019-05-21T20:40:48.093Z,15.40
2019-05-21T20:43:16.958Z,15.30
2019-05-21T20:45:48.488Z,15.30
2019-05-21T20:48:18.766Z,15.30
2019-05-21T20:50:48.361Z,15.20
2019-05-21T20:53:17.186Z,15.10
2019-05-21T20:55:45.823Z,15.10
2019-05-21T20:58:14.619Z,15.10
2019-05-21T21:00:53.840Z,15.10
2019-05-21T21:03:23.151Z,14.90
2019-05-21T21:05:52.231Z,14.80
2019-05-21T21:08:22.421Z,14.70
2019-05-21T21:10:51.463Z,14.60
2019-05-21T21:13:20.363Z,14.50
2019-05-21T21:15:49.078Z,14.40
2019-05-21T21:18:17.866Z,14.30
2019-05-21T21:20:46.680Z,14.20
2019-05-21T21:23:17.359Z,14.20
2019-05-21T21:25:46.285Z,14.10
2019-05-21T21:28:14.891Z,14.10
2019-05-21T21:30:44.503Z,14.10
2019-05-21T21:33:13.544Z,14.00
2019-05-21T21:35:42.438Z,14.00
2019-05-21T21:38:13.082Z,13.90
2019-05-21T21:40:41.943Z,13.90
2019-05-21T21:43:10.485Z,13.80
2019-05-21T21:45:39.461Z,13.80
2019-05-21T21:48:11.127Z,13.70
2019-05-21T21:50:39.555Z,13.70
2019-05-21T21:53:08.439Z,13.60
2019-05-21T21:55:37.090Z,13.50
2019-05-21T21:58:05.812Z,13.50
2019-05-21T22:01:00.036Z,13.50
2019-05-21T22:03:33.877Z,13.50
2019-05-21T22:06:04.472Z,13.50
2019-05-21T22:08:33.915Z,13.40
2019-05-21T22:11:03.047Z,13.40
2019-05-21T22:13:31.757Z,13.30
2019-05-21T22:16:01.090Z,13.20
2019-05-21T22:18:30.410Z,13.20
2019-05-21T22:20:59.617Z,13.20
2019-05-21T22:23:28.740Z,13.30
2019-05-21T22:25:58.208Z,13.20
2019-05-21T22:28:26.749Z,13.20
2019-05-21T22:30:55.774Z,13.10
2019-05-21T22:33:24.552Z,13.10
2019-05-21T22:35:54.350Z,13.10
2019-05-21T22:38:23.887Z,13.10
2019-05-21T22:40:52.674Z,13.00
2019-05-21T22:43:21.520Z,13.00
2019-05-21T22:45:50.340Z,13.00
2019-05-21T22:48:19.153Z,13.00
2019-05-21T22:50:47.831Z,12.90
2019-05-21T22:53:16.505Z,12.80
2019-05-21T22:55:45.167Z,12.70
2019-05-21T22:58:14.648Z,12.60
2019-05-21T23:00:44.270Z,12.60
2019-05-21T23:03:13.081Z,12.60
2019-05-21T23:05:41.827Z,12.50
2019-05-21T23:08:10.875Z,12.40
2019-05-21T23:10:39.599Z,12.50
2019-05-21T23:13:08.299Z,12.40
2019-05-21T23:15:37.234Z,12.40
2019-05-21T23:18:06.078Z,12.40
2019-05-21T23:20:36.462Z,12.40
2019-05-21T23:23:06.064Z,12.50
2019-05-21T23:25:36.644Z,12.50
2019-05-21T23:28:05.807Z,12.50
2019-05-21T23:30:34.764Z,12.40
2019-05-21T23:33:04.626Z,12.40
2019-05-21T23:35:37.134Z,12.40
2019-05-21T23:38:59.404Z,12.40
2019-05-21T23:41:29.569Z,12.50
2019-05-21T23:44:00.017Z,12.40
2019-05-21T23:46:29.774Z,12.30
2019-05-21T23:48:58.453Z,12.30
2019-05-21T23:51:27.124Z,12.40
2019-05-21T23:53:55.864Z,12.40
2019-05-21T23:56:24.679Z,12.40
2019-05-21T23:58:53.732Z,12.30
